Time;durP1;ratioP1;P1;durP2;ratioP2;P2;SDS_P1;SDS_P2;PMS_P1;PMS_P2;Temp;Humidity;BMP_temperature;BMP_pressure;BME280_temperature;BME280_humidity;BME280_pressure;Samples;Min_cycle;Max_cycle;Signal;HPM_P1;HPM_P2
2022/03/28 00:02:15;;;;;;;3.70;3.13;;;;;;;5.75;95.10;102583.50;4991555;28;20184;-42
2022/03/28 00:04:40;;;;;;;4.63;2.83;;;;;;;5.71;95.22;102589.66;4991140;28;20192;-41
2022/03/28 00:07:06;;;;;;;4.38;2.85;;;;;;;5.67;95.43;102585.19;4991732;28;20302;-43
2022/03/28 00:09:31;;;;;;;7.03;2.85;;;;;;;5.62;95.93;102570.03;4991604;28;20173;-42
2022/03/28 00:11:56;;;;;;;3.83;2.70;;;;;;;5.54;96.22;102573.53;4991792;28;20220;-40
2022/03/28 00:14:22;;;;;;;4.47;2.40;;;;;;;5.63;95.98;102575.38;4991906;28;20193;-44
2022/03/28 00:16:47;;;;;;;3.28;2.75;;;;;;;5.49;95.90;102569.03;4991565;28;20707;-43
2022/03/28 00:19:12;;;;;;;6.18;2.63;;;;;;;5.66;95.73;102572.75;4990187;28;20216;-42
2022/03/28 00:21:38;;;;;;;5.18;2.97;;;;;;;5.70;95.65;102568.34;4989992;28;20280;-41
2022/03/28 00:24:04;;;;;;;8.00;2.70;;;;;;;5.69;95.41;102564.81;4991152;28;20220;-42
2022/03/28 00:26:31;;;;;;;5.43;3.05;;;;;;;5.72;95.71;102556.84;4991587;28;20675;-43
2022/03/28 00:28:56;;;;;;;6.25;2.90;;;;;;;5.66;95.81;102555.91;4991173;28;20244;-46
2022/03/28 00:31:22;;;;;;;5.07;2.42;;;;;;;5.65;96.12;102557.69;4991760;28;20228;-43
2022/03/28 00:33:48;;;;;;;6.20;2.72;;;;;;;5.57;96.33;102552.31;4989246;28;20173;-43
2022/03/28 00:36:14;;;;;;;5.75;2.80;;;;;;;5.60;96.64;102555.84;4991298;28;20674;-40
2022/03/28 00:38:39;;;;;;;7.93;2.92;;;;;;;5.43;96.43;102543.28;4991285;28;20292;-44
2022/03/28 00:41:04;;;;;;;5.70;2.90;;;;;;;5.52;96.96;102539.81;4991416;28;20251;-44
2022/03/28 00:43:30;;;;;;;7.43;3.15;;;;;;;5.60;96.35;102526.59;4991239;28;20198;-41
2022/03/28 00:45:55;;;;;;;6.38;3.63;;;;;;;5.47;97.04;102529.16;4990182;28;20201;-43
2022/03/28 00:48:21;;;;;;;6.38;2.53;;;;;;;5.51;96.94;102527.38;4990452;28;20165;-43
2022/03/28 00:50:46;;;;;;;8.18;3.03;;;;;;;5.57;96.61;102523.06;4990160;28;20549;-43
2022/03/28 00:53:14;;;;;;;6.05;2.90;;;;;;;5.63;96.62;102508.91;4990056;28;20161;-41
2022/03/28 00:55:39;;;;;;;5.38;3.33;;;;;;;5.65;96.88;102516.91;4989176;28;20200;-43
2022/03/28 00:58:05;;;;;;;7.75;3.08;;;;;;;5.56;96.82;102515.94;4990674;28;20197;-41
2022/03/28 01:00:31;;;;;;;4.55;3.10;;;;;;;5.58;96.47;102505.31;4990206;28;20553;-41
2022/03/28 01:02:57;;;;;;;4.45;2.83;;;;;;;5.55;96.54;102502.63;4990208;28;20593;-41
2022/03/28 01:05:24;;;;;;;6.90;3.00;;;;;;;5.54;96.69;102506.16;4990387;28;20210;-43
2022/03/28 01:07:50;;;;;;;4.35;2.72;;;;;;;5.44;96.61;102494.53;4988749;28;20181;-44
2022/03/28 01:10:15;;;;;;;4.93;3.05;;;;;;;5.46;96.56;102494.56;4989910;28;20161;-42
2022/03/28 01:12:42;;;;;;;5.75;3.05;;;;;;;5.54;96.60;102479.59;4989865;28;20174;-43
2022/03/28 01:15:10;;;;;;;8.18;2.80;;;;;;;5.52;96.49;102489.31;4989894;28;20257;-42
2022/03/28 01:20:22;;;;;;;4.15;2.60;;;;;;;5.46;96.68;102474.19;4992422;28;20222;-43
2022/03/28 01:22:48;;;;;;;4.43;2.50;;;;;;;5.46;96.47;102473.31;4993451;28;20166;-44
2022/03/28 01:25:20;;;;;;;4.75;2.75;;;;;;;5.41;96.26;102475.91;4993430;28;20186;-40
2022/03/28 01:27:46;;;;;;;5.30;2.55;;;;;;;5.27;96.63;102467.81;4992100;28;20185;-41
2022/03/28 01:30:12;;;;;;;7.88;2.78;;;;;;;5.30;96.52;102480.25;4992109;28;20178;-44
2022/03/28 01:32:37;;;;;;;4.30;2.28;;;;;;;5.40;96.31;102463.53;4993407;28;20256;-42
2022/03/28 01:35:03;;;;;;;3.35;2.30;;;;;;;5.42;96.36;102464.38;4993326;28;20635;-42
2022/03/28 01:37:28;;;;;;;7.60;2.72;;;;;;;5.46;96.88;102467.97;4993218;28;20201;-43
2022/03/28 01:39:54;;;;;;;10.40;2.95;;;;;;;5.46;96.42;102465.31;4993424;28;20637;-41
2022/03/28 01:42:19;;;;;;;6.72;3.00;;;;;;;5.48;96.56;102466.22;4991393;28;20193;-43
2022/03/28 01:44:49;;;;;;;6.88;2.90;;;;;;;5.51;96.37;102471.56;4956015;28;1078866;-42
2022/03/28 01:47:15;;;;;;;5.22;2.70;;;;;;;5.19;96.75;102465.97;4994767;28;20173;-43
2022/03/28 01:49:40;;;;;;;3.72;2.25;;;;;;;5.26;96.48;102468.69;4994271;28;20170;-40
2022/03/28 01:52:06;;;;;;;4.95;2.67;;;;;;;5.26;97.01;102467.78;4962230;28;20189;-43
2022/03/28 01:54:31;;;;;;;4.28;2.42;;;;;;;5.19;96.91;102460.66;4993901;28;20198;-44
2022/03/28 01:56:57;;;;;;;3.28;2.25;;;;;;;5.26;96.89;102468.69;4986851;28;20380;-40
2022/03/28 01:59:22;;;;;;;3.45;2.40;;;;;;;5.20;97.03;102463.28;4990235;28;20680;-42
2022/03/28 02:01:48;;;;;;;3.50;2.58;;;;;;;5.19;97.36;102457.97;4993421;28;20655;-45
2022/03/28 02:04:13;;;;;;;4.75;2.70;;;;;;;5.07;97.11;102458.72;4993994;28;20245;-43
2022/03/28 02:06:38;;;;;;;4.40;3.17;;;;;;;4.96;98.05;102453.28;4993755;28;20263;-42
2022/03/28 02:09:04;;;;;;;4.07;2.80;;;;;;;5.05;97.97;102448.09;4994106;28;20192;-44
2022/03/28 02:11:30;;;;;;;3.97;2.40;;;;;;;4.96;98.13;102447.97;4987438;28;20192;-43
2022/03/28 02:13:55;;;;;;;5.40;3.08;;;;;;;5.00;98.20;102455.13;4983147;28;20667;-39
2022/03/28 02:16:20;;;;;;;5.93;2.58;;;;;;;4.93;98.25;102453.28;4994074;28;20201;-42
2022/03/28 02:18:46;;;;;;;4.25;2.42;;;;;;;5.04;98.23;102453.41;4993210;28;20287;-43
2022/03/28 02:21:11;;;;;;;3.83;2.65;;;;;;;4.93;98.37;102440.00;4993598;28;20599;-42
2022/03/28 02:23:37;;;;;;;4.40;2.30;;;;;;;4.88;98.84;102447.91;4993273;28;20177;-41
2022/03/28 02:26:03;;;;;;;7.03;2.70;;;;;;;4.92;98.77;102452.41;4993742;28;20197;-43
2022/03/28 02:28:29;;;;;;;2.20;2.10;;;;;;;5.09;98.59;102449.00;4993734;28;20603;-44
2022/03/28 02:30:55;;;;;;;9.75;2.83;;;;;;;5.04;98.67;102448.97;4993542;28;20239;-44
2022/03/28 02:33:21;;;;;;;6.20;2.70;;;;;;;4.87;99.50;102448.78;4991979;28;20254;-42
2022/03/28 02:35:46;;;;;;;4.13;2.83;;;;;;;4.91;99.86;102445.28;4993671;28;20213;-43
2022/03/28 02:38:12;;;;;;;5.32;2.35;;;;;;;4.87;99.81;102443.47;4992641;28;20228;-40
2022/03/28 02:40:38;;;;;;;5.50;2.70;;;;;;;4.88;100.00;102445.25;4993798;28;20192;-43
2022/03/28 02:43:04;;;;;;;5.53;2.63;;;;;;;4.85;99.86;102434.59;4993309;28;20176;-44
2022/03/28 02:45:36;;;;;;;3.60;2.75;;;;;;;4.97;99.82;102441.81;4992940;28;20275;-40
2022/03/28 02:48:05;;;;;;;3.65;2.78;;;;;;;4.91;99.45;102439.09;4992888;28;20648;-41
2022/03/28 02:50:32;;;;;;;4.95;2.60;;;;;;;4.95;99.07;102423.19;4993015;28;20661;-39
2022/03/28 02:52:58;;;;;;;3.22;2.72;;;;;;;4.87;99.28;102437.25;4993145;28;20252;-42
2022/03/28 02:55:24;;;;;;;6.15;2.70;;;;;;;5.04;98.73;102421.53;4992735;28;20204;-44
2022/03/28 02:57:49;;;;;;;6.65;3.20;;;;;;;4.91;99.16;102432.00;4993084;28;20189;-44
2022/03/28 03:00:15;;;;;;;4.32;2.78;;;;;;;4.97;99.43;102430.31;4993123;28;20523;-45
2022/03/28 03:02:44;;;;;;;4.53;2.55;;;;;;;5.08;99.35;102428.66;4992750;28;20270;-43
2022/03/28 03:05:11;;;;;;;6.18;2.65;;;;;;;5.00;99.38;102425.00;4993442;28;20300;-42
2022/03/28 03:07:37;;;;;;;4.05;3.20;;;;;;;5.04;99.80;102425.06;4992918;28;20189;-41
2022/03/28 03:10:03;;;;;;;5.97;2.38;;;;;;;5.10;99.18;102421.59;4992833;28;20181;-42
2022/03/28 03:12:29;;;;;;;4.93;2.35;;;;;;;4.97;99.37;102428.53;4991342;28;20578;-41
2022/03/28 03:14:54;;;;;;;5.45;2.58;;;;;;;4.91;99.48;102423.16;4992886;28;20185;-43
2022/03/28 03:17:20;;;;;;;4.38;2.60;;;;;;;4.92;99.28;102416.97;4992871;28;20549;-40
2022/03/28 03:19:46;;;;;;;3.78;2.80;;;;;;;4.87;99.96;102416.91;4992516;28;20166;-41
2022/03/28 03:22:14;;;;;;;2.75;2.38;;;;;;;4.92;99.86;102414.31;4991109;28;20268;-45
2022/03/28 03:24:40;;;;;;;6.30;2.20;;;;;;;4.91;99.86;102413.41;4992905;28;20581;-44
2022/03/28 03:27:05;;;;;;;6.90;2.70;;;;;;;4.95;99.45;102398.41;4992718;28;20175;-44
2022/03/28 03:29:31;;;;;;;3.72;2.42;;;;;;;4.97;99.67;102415.25;4992639;28;20224;-43
2022/03/28 03:31:56;;;;;;;2.75;2.47;;;;;;;4.96;99.68;102405.50;4992725;28;20235;-43
2022/03/28 03:34:22;;;;;;;4.22;2.20;;;;;;;5.03;99.12;102395.81;4992029;28;20687;-42
2022/03/28 03:36:47;;;;;;;2.60;2.40;;;;;;;5.07;99.04;102401.19;4991151;28;20578;-44
2022/03/28 03:39:13;;;;;;;5.82;2.47;;;;;;;4.98;98.83;102401.09;4991469;28;20193;-43
2022/03/28 03:41:38;;;;;;;3.15;2.30;;;;;;;4.99;98.72;102402.00;4992342;28;20220;-42
2022/03/28 03:44:06;;;;;;;2.92;2.05;;;;;;;4.93;98.77;102402.81;4991993;28;20158;-42
2022/03/28 03:46:32;;;;;;;3.58;1.92;;;;;;;4.93;99.18;102390.41;4972291;28;20215;-41
2022/03/28 03:48:58;;;;;;;3.53;2.25;;;;;;;4.90;99.08;102390.41;4972692;28;20674;-44
2022/03/28 03:51:23;;;;;;;2.40;2.05;;;;;;;4.92;98.93;102387.78;4972062;28;20374;-43
2022/03/28 03:53:48;;;;;;;3.58;2.45;;;;;;;4.89;98.65;102387.72;4972318;28;20169;-43
2022/03/28 03:56:15;;;;;;;6.32;2.30;;;;;;;4.82;98.82;102385.88;4972331;28;20208;-40
2022/03/28 03:58:41;;;;;;;4.38;2.35;;;;;;;4.90;98.49;102377.13;4989716;28;20197;-42
2022/03/28 04:01:08;;;;;;;7.53;2.70;;;;;;;4.89;98.34;102375.31;4991235;28;20188;-43
2022/03/28 04:03:34;;;;;;;4.53;2.47;;;;;;;4.82;98.58;102381.44;4991218;28;20166;-43
2022/03/28 04:06:00;;;;;;;3.75;2.25;;;;;;;4.78;98.52;102376.09;4991718;28;20217;-42
2022/03/28 04:08:26;;;;;;;5.85;2.85;;;;;;;4.80;98.85;102366.38;4991714;28;20188;-43
2022/03/28 04:10:51;;;;;;;4.18;2.97;;;;;;;4.77;99.13;102367.25;4986456;28;20177;-42
2022/03/28 04:13:18;;;;;;;4.82;2.72;;;;;;;4.79;99.44;102375.22;4991879;28;20248;-43
2022/03/28 04:15:43;;;;;;;6.18;2.60;;;;;;;4.88;99.13;102367.38;4991546;28;20505;-43
2022/03/28 04:18:09;;;;;;;3.78;3.10;;;;;;;4.86;99.09;102370.00;4991493;28;20659;-43
2022/03/28 04:20:35;;;;;;;3.03;2.40;;;;;;;4.84;98.93;102366.44;4991315;28;20220;-42
2022/03/28 04:23:01;;;;;;;3.00;2.75;;;;;;;4.89;99.30;102370.00;4991231;28;20178;-41
2022/03/28 04:25:27;;;;;;;3.13;2.70;;;;;;;4.85;99.14;102376.16;4991701;28;20556;-41
2022/03/28 04:27:52;;;;;;;2.78;2.58;;;;;;;4.93;98.73;102363.84;4991521;28;20165;-43
2022/03/28 04:30:17;;;;;;;3.33;3.00;;;;;;;4.95;98.59;102364.75;4991660;28;20273;-42
2022/03/28 04:32:43;;;;;;;3.63;3.20;;;;;;;5.03;98.61;102370.16;4991314;28;20165;-43
2022/03/28 04:35:10;;;;;;;4.85;3.17;;;;;;;4.94;97.96;102370.06;4991575;28;20212;-40
2022/03/28 04:37:38;;;;;;;4.07;3.00;;;;;;;4.91;97.85;102365.59;4991841;28;20215;-43
2022/03/28 04:40:05;;;;;;;4.85;3.33;;;;;;;4.88;97.87;102362.06;4991956;28;20174;-43
2022/03/28 04:42:32;;;;;;;3.08;2.63;;;;;;;4.79;97.80;102357.53;4990725;28;20212;-41
2022/03/28 04:44:58;;;;;;;2.85;1.90;;;;;;;4.77;97.64;102351.31;4991731;28;20370;-44
2022/03/28 04:47:23;;;;;;;0.90;0.90;;;;;;;4.73;97.09;102347.72;4991493;28;20260;-41
2022/03/28 04:49:49;;;;;;;1.38;0.82;;;;;;;4.73;96.24;102357.47;4991657;28;20180;-43
2022/03/28 04:52:14;;;;;;;3.60;0.80;;;;;;;4.62;96.22;102344.06;4991152;28;20304;-43
2022/03/28 04:54:40;;;;;;;0.80;0.70;;;;;;;4.64;96.11;102352.94;4991714;28;20473;-42
2022/03/28 04:57:05;;;;;;;0.60;0.60;;;;;;;4.70;96.16;102357.41;4990533;28;20176;-43
2022/03/28 04:59:31;;;;;;;1.05;0.55;;;;;;;4.66;96.09;102359.16;4991526;28;20200;-43
2022/03/28 05:01:58;;;;;;;0.63;0.63;;;;;;;4.71;96.53;102364.53;4991435;28;20181;-45
2022/03/28 05:04:23;;;;;;;0.50;0.50;;;;;;;4.70;96.69;102349.44;4991116;28;20223;-43
2022/03/28 05:06:49;;;;;;;0.60;0.60;;;;;;;4.58;96.52;102352.88;4991252;28;20178;-44
2022/03/28 05:09:15;;;;;;;0.68;0.60;;;;;;;4.60;96.88;102339.63;4991323;28;20629;-41
2022/03/28 05:11:41;;;;;;;0.70;0.63;;;;;;;4.59;97.05;102337.84;4991736;28;20528;-42
2022/03/28 05:14:07;;;;;;;1.00;0.60;;;;;;;4.62;97.25;102346.72;4991167;28;20165;-41
2022/03/28 05:16:32;;;;;;;0.60;0.60;;;;;;;4.68;97.52;102346.81;4991552;28;20191;-41
2022/03/28 05:18:58;;;;;;;1.10;0.80;;;;;;;4.51;97.79;102345.72;4991800;28;20228;-43
2022/03/28 05:21:23;;;;;;;1.30;1.05;;;;;;;4.64;98.66;102350.28;4989742;28;20641;-43
2022/03/28 05:23:49;;;;;;;0.70;0.70;;;;;;;4.68;99.51;102356.50;4991087;28;20618;-41
2022/03/28 05:26:14;;;;;;;2.20;0.70;;;;;;;4.65;99.52;102344.09;4973699;28;20201;-45
2022/03/28 05:28:39;;;;;;;0.80;0.80;;;;;;;4.78;99.72;102333.63;4991302;28;20181;-44
2022/03/28 05:31:05;;;;;;;0.95;0.95;;;;;;;4.72;100.00;102337.09;4991225;28;20264;-42
2022/03/28 05:33:31;;;;;;;1.23;0.98;;;;;;;4.61;100.00;102333.44;4990934;28;20180;-41
2022/03/28 05:35:56;;;;;;;2.25;1.00;;;;;;;4.61;100.00;102330.78;4991141;28;20707;-44
2022/03/28 05:38:23;;;;;;;1.00;0.90;;;;;;;4.49;100.00;102337.75;4991095;28;20205;-43
2022/03/28 05:40:49;;;;;;;1.00;1.00;;;;;;;4.66;100.00;102329.09;4991398;28;20256;-41
2022/03/28 05:43:14;;;;;;;1.05;1.05;;;;;;;4.51;100.00;102330.69;4990993;28;20178;-41
2022/03/28 05:45:40;;;;;;;1.25;1.10;;;;;;;4.57;100.00;102319.25;4990924;28;20216;-43
2022/03/28 05:48:06;;;;;;;1.17;1.13;;;;;;;4.63;100.00;102302.47;4991150;28;20161;-40
2022/03/28 05:50:31;;;;;;;1.20;1.13;;;;;;;4.59;100.00;102305.97;4991072;28;20261;-42
2022/03/28 05:52:57;;;;;;;1.00;1.00;;;;;;;4.76;100.00;102296.41;4989910;28;20176;-42
2022/03/28 05:55:22;;;;;;;0.98;0.90;;;;;;;4.83;100.00;102300.94;4990611;28;20229;-43
2022/03/28 05:57:48;;;;;;;2.42;1.63;;;;;;;4.89;100.00;102302.72;4990970;28;20247;-43
2022/03/28 06:00:14;;;;;;;2.08;1.33;;;;;;;4.89;99.27;102300.06;4990943;28;20248;-44
2022/03/28 06:02:44;;;;;;;2.20;1.50;;;;;;;4.87;98.82;102297.41;4992554;28;20216;-42
2022/03/28 06:05:10;;;;;;;1.85;1.60;;;;;;;4.90;98.71;102307.19;4994646;28;20275;-45
2022/03/28 06:07:36;;;;;;;1.55;1.40;;;;;;;4.78;98.42;102297.31;4994400;28;20220;-42
2022/03/28 06:10:05;;;;;;;2.20;1.50;;;;;;;4.84;98.81;102304.47;4994698;28;20181;-46
2022/03/28 06:12:31;;;;;;;1.90;1.30;;;;;;;4.98;98.59;102294.84;4993692;28;20698;-42
2022/03/28 06:14:57;;;;;;;1.50;1.40;;;;;;;5.04;98.58;102296.66;4994634;28;20202;-42
2022/03/28 06:17:23;;;;;;;1.60;1.50;;;;;;;5.03;98.47;102290.47;4994176;28;20196;-45
2022/03/28 06:19:49;;;;;;;1.30;1.20;;;;;;;5.01;97.85;102288.66;4994296;28;20176;-41
2022/03/28 06:22:15;;;;;;;1.55;1.42;;;;;;;5.13;97.62;102288.78;4993851;28;20613;-41
2022/03/28 06:24:41;;;;;;;1.50;1.40;;;;;;;5.15;97.88;102287.91;4993806;28;20259;-45
2022/03/28 06:27:07;;;;;;;3.13;1.60;;;;;;;5.15;97.51;102295.88;4992708;28;20272;-44
2022/03/28 06:29:32;;;;;;;1.90;1.40;;;;;;;5.24;97.45;102292.38;4994188;28;20184;-41
2022/03/28 06:31:58;;;;;;;2.50;1.52;;;;;;;5.23;97.45;102280.00;4992287;28;20188;-42
2022/03/28 06:34:23;;;;;;;2.08;1.67;;;;;;;5.19;96.87;102272.88;4993412;28;20563;-42
2022/03/28 06:36:49;;;;;;;1.70;1.60;;;;;;;5.22;96.61;102275.53;4993752;28;20256;-44
2022/03/28 06:39:15;;;;;;;2.92;2.00;;;;;;;5.19;96.46;102280.84;4993646;28;20226;-43
2022/03/28 06:41:40;;;;;;;1.52;1.42;;;;;;;5.42;96.53;102269.47;4993596;28;20257;-43
2022/03/28 06:44:08;;;;;;;2.95;1.63;;;;;;;5.44;96.10;102257.97;4991248;28;20169;-42
2022/03/28 06:46:36;;;;;;;1.98;1.85;;;;;;;5.53;95.70;102262.44;4992967;28;20211;-47
2022/03/28 06:49:02;;;;;;;2.05;1.95;;;;;;;5.59;95.36;102267.81;4990970;28;20203;-46
2022/03/28 06:51:27;;;;;;;2.38;1.90;;;;;;;5.64;95.15;102250.13;4992698;28;20773;-49
2022/03/28 06:53:52;;;;;;;2.33;1.98;;;;;;;5.59;94.41;102251.84;4991941;28;20226;-47
2022/03/28 06:56:18;;;;;;;7.80;2.00;;;;;;;5.47;94.70;102258.00;4991527;28;20212;-48
2022/03/28 06:58:43;;;;;;;2.50;2.30;;;;;;;5.51;94.88;102254.50;4992358;28;20190;-48
2022/03/28 07:01:10;;;;;;;3.15;2.17;;;;;;;5.59;94.72;102254.50;4974765;28;20170;-48
2022/03/28 07:03:37;;;;;;;4.10;2.00;;;;;;;5.59;94.43;102251.84;4991914;28;20182;-48
2022/03/28 07:06:02;;;;;;;3.97;2.30;;;;;;;5.66;93.84;102252.78;4992113;28;20196;-47
2022/03/28 07:08:29;;;;;;;3.17;1.92;;;;;;;5.83;93.76;102247.53;4992298;28;20540;-44
2022/03/28 07:10:55;;;;;;;3.90;2.00;;;;;;;5.89;93.44;102247.56;4991808;28;20243;-48
2022/03/28 07:13:22;;;;;;;2.75;1.92;;;;;;;5.77;92.66;102243.06;4990105;28;20181;-45
2022/03/28 07:15:48;;;;;;;5.63;2.25;;;;;;;5.89;92.61;102236.94;4992286;28;20621;-49
2022/03/28 07:18:14;;;;;;;3.38;2.53;;;;;;;5.88;92.41;102240.47;4992067;28;20577;-46
2022/03/28 07:20:40;;;;;;;2.58;2.38;;;;;;;6.03;91.74;102237.88;4991915;28;20184;-48
2022/03/28 07:23:06;;;;;;;2.55;2.30;;;;;;;6.00;91.90;102229.91;4989777;28;20572;-45
2022/03/28 07:25:32;;;;;;;2.45;2.20;;;;;;;5.98;90.94;102223.69;4990302;28;20623;-46
2022/03/28 07:27:58;;;;;;;3.83;2.10;;;;;;;6.13;90.92;102222.84;4990234;28;20550;-46
2022/03/28 07:30:25;;;;;;;4.93;2.75;;;;;;;6.11;90.94;102214.84;4990806;28;20201;-48
2022/03/28 07:32:51;;;;;;;2.97;2.38;;;;;;;6.23;90.31;102223.75;4989002;28;20169;-49
2022/03/28 07:35:17;;;;;;;3.45;2.20;;;;;;;6.14;89.66;102219.28;4989084;28;20211;-47
2022/03/28 07:37:43;;;;;;;2.47;2.38;;;;;;;6.11;89.85;102209.53;4991465;28;20205;-48
2022/03/28 07:40:10;;;;;;;3.65;2.55;;;;;;;6.23;89.81;102211.34;4991248;28;20734;-48
2022/03/28 07:42:37;;;;;;;6.15;2.47;;;;;;;6.24;89.82;102204.25;4991858;28;20652;-50
2022/03/28 07:45:05;;;;;;;3.13;2.78;;;;;;;6.26;89.50;102208.69;4990768;28;20209;-48
2022/03/28 07:47:31;;;;;;;3.95;2.80;;;;;;;6.23;89.52;102200.72;4992019;28;20193;-47
2022/03/28 07:49:58;;;;;;;3.97;3.08;;;;;;;6.28;88.03;102203.38;4991179;28;20188;-47
2022/03/28 07:52:24;;;;;;;2.92;2.58;;;;;;;6.26;88.50;102200.69;4990500;28;20182;-50
2022/03/28 07:54:50;;;;;;;4.53;3.05;;;;;;;6.25;88.30;102193.59;4990807;28;20258;-46
2022/03/28 07:57:17;;;;;;;3.55;3.10;;;;;;;6.32;87.93;102202.47;4991272;28;20173;-47
2022/03/28 07:59:45;;;;;;;5.32;3.40;;;;;;;6.16;88.41;102202.44;4990558;28;20268;-47
2022/03/28 08:02:11;;;;;;;7.80;4.10;;;;;;;6.18;88.61;102192.69;4991639;28;20176;-48
2022/03/28 08:04:37;;;;;;;4.28;3.63;;;;;;;6.35;87.83;102194.50;4991564;28;20569;-47
2022/03/28 08:07:05;;;;;;;4.13;3.63;;;;;;;6.37;87.98;102182.97;4991437;28;20169;-48
2022/03/28 08:09:31;;;;;;;3.67;3.22;;;;;;;6.32;87.00;102176.75;4991526;28;20168;-46
2022/03/28 08:11:57;;;;;;;4.65;3.35;;;;;;;6.28;87.16;102176.75;4991589;28;20173;-46
2022/03/28 08:14:23;;;;;;;5.25;3.97;;;;;;;6.33;87.34;102175.88;4991253;28;20173;-46
2022/03/28 08:16:49;;;;;;;6.10;4.10;;;;;;;6.42;87.59;102164.34;4991354;28;20647;-48
2022/03/28 08:19:14;;;;;;;4.50;3.72;;;;;;;6.36;87.58;102165.25;4991276;28;20208;-47
2022/03/28 08:21:40;;;;;;;5.75;4.43;;;;;;;6.49;87.04;102167.88;4991188;28;20165;-47
2022/03/28 08:24:05;;;;;;;6.03;4.70;;;;;;;6.47;87.03;102159.00;4989776;28;20173;-47
2022/03/28 08:26:31;;;;;;;5.45;3.97;;;;;;;6.63;87.00;102146.59;4990871;28;20200;-47
2022/03/28 08:28:57;;;;;;;7.70;4.53;;;;;;;6.65;86.81;102151.03;4991365;28;20300;-50
2022/03/28 08:31:22;;;;;;;7.70;4.65;;;;;;;6.68;86.21;102151.00;4991136;28;20345;-49
2022/03/28 08:33:48;;;;;;;6.13;3.85;;;;;;;6.70;85.86;102146.56;4991148;28;20228;-44
2022/03/28 08:36:13;;;;;;;6.10;4.22;;;;;;;6.68;85.83;102143.03;4989504;28;20652;-48
2022/03/28 08:38:48;;;;;;;6.80;4.45;;;;;;;6.83;85.38;102151.91;4987026;28;20204;-45
2022/03/28 08:41:17;;;;;;;4.65;3.88;;;;;;;6.78;85.63;102143.91;4979586;28;20188;-45
2022/03/28 08:43:42;;;;;;;6.50;4.90;;;;;;;6.74;85.91;102140.38;4990705;28;20311;-47
2022/03/28 08:46:09;;;;;;;8.02;4.38;;;;;;;6.75;85.31;102131.47;4991048;28;20240;-47
2022/03/28 08:48:40;;;;;;;6.15;4.60;;;;;;;6.87;85.93;102130.59;4991118;28;20170;-47
2022/03/28 08:51:11;;;;;;;10.15;4.75;;;;;;;6.99;85.50;102132.31;4990908;28;20539;-47
2022/03/28 08:53:37;;;;;;;7.95;4.80;;;;;;;6.97;85.29;102119.00;4990756;28;20701;-46
2022/03/28 08:56:04;;;;;;;7.03;4.78;;;;;;;6.90;85.10;102127.91;4991001;28;20199;-45
2022/03/28 08:58:29;;;;;;;8.30;5.13;;;;;;;6.83;85.21;102131.47;4990921;28;20244;-45
2022/03/28 09:00:55;;;;;;;5.68;5.03;;;;;;;6.88;84.97;102126.13;4990960;28;20158;-46
2022/03/28 09:03:34;;;;;;;6.50;4.68;;;;;;;6.94;85.02;102129.66;4990609;28;20176;-47
2022/03/28 09:05:59;;;;;;;6.10;4.85;;;;;;;6.89;85.45;102141.25;4990581;28;20209;-47
2022/03/28 09:08:25;;;;;;;7.22;4.90;;;;;;;7.04;84.72;102127.88;4991218;28;20216;-46
2022/03/28 09:10:50;;;;;;;6.15;4.85;;;;;;;7.13;84.81;102126.97;4990904;28;20181;-47
2022/03/28 09:13:16;;;;;;;9.40;5.03;;;;;;;7.00;85.23;102126.13;4990423;28;20644;-49
2022/03/28 09:15:42;;;;;;;7.60;4.40;;;;;;;7.13;85.21;102118.97;4990726;28;20196;-46
2022/03/28 09:18:18;;;;;;;5.47;4.53;;;;;;;7.26;85.02;102125.13;4989012;28;20276;-45
2022/03/28 09:20:47;;;;;;;6.18;5.13;;;;;;;7.22;85.11;102108.28;4990977;28;20169;-48
2022/03/28 09:23:33;;;;;;;9.50;5.53;;;;;;;7.22;84.38;102108.28;4989923;28;20169;-47
2022/03/28 09:26:05;;;;;;;6.72;4.72;;;;;;;7.20;85.24;102097.59;4990749;28;20209;-45
2022/03/28 09:28:39;;;;;;;7.38;4.80;;;;;;;7.38;85.19;102101.09;4990271;28;20664;-50
2022/03/28 09:31:30;;;;;;;6.03;5.40;;;;;;;7.39;84.84;102100.19;4990684;28;20264;-46
2022/03/28 09:34:10;;;;;;;8.27;5.38;;;;;;;7.39;84.97;102095.75;4990537;28;20656;-47
2022/03/28 09:36:57;;;;;;;8.27;5.35;;;;;;;7.45;84.62;102088.63;4990857;28;20239;-46
2022/03/28 09:39:26;;;;;;;8.98;5.85;;;;;;;7.40;85.13;102088.63;4994346;28;20537;-48
2022/03/28 09:42:03;;;;;;;7.32;5.93;;;;;;;7.57;85.05;102091.22;4994083;28;20180;-48
2022/03/28 09:44:49;;;;;;;8.13;5.95;;;;;;;7.58;84.55;102087.66;4993959;28;20196;-46
2022/03/28 09:47:22;;;;;;;8.48;6.20;;;;;;;7.38;84.70;102085.09;4994068;28;20157;-49
2022/03/28 09:49:54;;;;;;;8.55;5.90;;;;;;;7.50;84.89;102081.47;4991358;28;20185;-46
2022/03/28 09:52:22;;;;;;;8.73;6.05;;;;;;;7.43;84.90;102076.19;4993791;28;20177;-48
2022/03/28 09:54:51;;;;;;;8.52;6.47;;;;;;;7.59;84.84;102074.31;4994282;28;20253;-48
2022/03/28 09:57:32;;;;;;;7.18;6.32;;;;;;;7.55;84.20;102069.00;4994217;28;20557;-46
2022/03/28 10:00:12;;;;;;;11.48;6.43;;;;;;;7.63;84.15;102059.16;4994161;28;20249;-47
2022/03/28 10:02:38;;;;;;;8.88;6.40;;;;;;;7.61;83.76;102066.31;4993464;28;20689;-47
2022/03/28 10:05:05;;;;;;;12.00;6.35;;;;;;;7.71;83.60;102060.00;4992419;28;20201;-44
2022/03/28 10:07:31;;;;;;;9.63;5.97;;;;;;;7.68;83.19;102057.38;4994019;28;20481;-46
2022/03/28 10:09:58;;;;;;;9.07;7.43;;;;;;;7.73;83.02;102058.22;4992672;28;20162;-47
2022/03/28 10:12:24;;;;;;;8.27;6.25;;;;;;;7.79;83.15;102059.97;4993304;28;20655;-45
2022/03/28 10:14:57;;;;;;;8.30;6.88;;;;;;;7.95;82.92;102053.59;4992995;28;20197;-48
2022/03/28 10:17:24;;;;;;;7.68;6.50;;;;;;;8.04;81.97;102039.31;4993609;28;20166;-48
2022/03/28 10:19:50;;;;;;;10.38;6.53;;;;;;;8.00;81.74;102038.47;4993454;28;20633;-47
2022/03/28 10:22:22;;;;;;;8.88;6.68;;;;;;;8.03;81.89;102048.22;4992467;28;20177;-46
2022/03/28 10:24:50;;;;;;;7.63;5.85;;;;;;;8.00;81.97;102045.56;4992747;28;20288;-46
2022/03/28 10:27:16;;;;;;;10.05;6.60;;;;;;;8.02;81.60;102033.09;4993032;28;20617;-48
2022/03/28 10:29:44;;;;;;;7.65;6.63;;;;;;;8.09;81.28;102029.50;4993153;28;20280;-49
2022/03/28 10:32:18;;;;;;;10.45;6.25;;;;;;;8.18;81.88;102029.41;4992910;28;20201;-46
2022/03/28 10:34:56;;;;;;;7.72;6.28;;;;;;;8.19;81.71;102043.63;4992688;28;20251;-45
2022/03/28 10:37:38;;;;;;;10.32;6.65;;;;;;;8.15;80.68;102034.75;4992740;28;20648;-46
2022/03/28 10:40:22;;;;;;;9.30;6.30;;;;;;;8.30;80.59;102049.75;4992737;28;20181;-47
2022/03/28 10:43:10;;;;;;;8.60;5.80;;;;;;;8.33;80.06;102039.06;4992558;28;20169;-47
2022/03/28 10:45:41;;;;;;;9.05;7.15;;;;;;;8.25;79.88;102027.56;4992269;28;20213;-46
2022/03/28 10:48:08;;;;;;;10.07;7.07;;;;;;;8.36;80.20;102032.81;4991667;28;20297;-46
2022/03/28 10:50:37;;;;;;;12.82;6.85;;;;;;;8.47;80.18;102030.94;4991126;28;20174;-47
2022/03/28 10:53:10;;;;;;;7.43;6.20;;;;;;;8.43;79.65;102018.53;4990775;28;20236;-47
2022/03/28 10:55:47;;;;;;;7.45;6.07;;;;;;;8.41;79.62;102021.19;4993070;28;20202;-46
2022/03/28 10:58:23;;;;;;;9.02;6.65;;;;;;;8.44;80.15;102021.19;4992579;28;20263;-47
2022/03/28 11:01:07;;;;;;;9.70;6.78;;;;;;;8.54;80.05;102013.94;4992502;28;20158;-46
2022/03/28 11:03:34;;;;;;;8.98;6.43;;;;;;;8.49;80.46;102012.25;4992086;28;20176;-46
2022/03/28 11:06:00;;;;;;;9.48;7.07;;;;;;;8.45;80.36;102004.25;4992195;28;20197;-48
2022/03/28 11:08:39;;;;;;;8.27;6.82;;;;;;;8.59;80.50;102000.53;4992338;28;20208;-49
2022/03/28 11:11:24;;;;;;;8.05;6.55;;;;;;;8.57;81.00;101995.22;4992204;28;20660;-43
2022/03/28 11:14:04;;;;;;;10.07;7.35;;;;;;;8.41;81.43;101988.28;4992032;28;20184;-47
2022/03/28 11:16:50;;;;;;;11.20;7.80;;;;;;;8.21;82.11;101994.66;4992007;28;20549;-47
2022/03/28 11:19:24;;;;;;;11.45;8.20;;;;;;;8.03;83.16;101984.16;4992107;28;20200;-48
2022/03/28 11:21:56;;;;;;;8.95;7.57;;;;;;;8.08;83.14;101990.34;4991719;28;20648;-47
2022/03/28 11:24:44;;;;;;;9.70;8.32;;;;;;;7.92;83.07;101986.94;4991422;28;20177;-45
2022/03/28 11:27:10;;;;;;;9.13;7.63;;;;;;;8.00;83.50;101985.09;4992007;28;20182;-47
2022/03/28 11:29:35;;;;;;;11.30;8.48;;;;;;;7.94;83.38;101976.25;4991822;28;20166;-48
2022/03/28 11:32:09;;;;;;;9.85;8.68;;;;;;;8.03;83.00;101976.16;4990588;28;20169;-46
2022/03/28 11:34:34;;;;;;;14.15;8.52;;;;;;;8.08;82.70;101987.66;4991455;28;20209;-49
2022/03/28 11:37:00;;;;;;;11.38;9.13;;;;;;;8.11;82.94;101987.66;4990287;28;20260;-46